Lexington, SC (29072)

4:48 AM EDT on July 06, 2015 (GMT -0400)
Barre St & Third Ave | | Change Station
CLOSE
Current Station
Personal Weather Station
Location: Lexington, SC
Elevation: 420 ft
Nearby Weather Stations

Elev 420 ft 33.98 °N, 81.24 °W | Updated 9 minutes ago

Overcast
Overcast
71.1 °F
Feels Like 71.1 °F
N
1.7
Wind Variable Wind from SE

Today
High -- | Low -- °F
--% Chance of Precip.
Yesterday
High -- | Low -- °F
Precip. -- in
6:19 AM 8:39 PM
Waning Gibbous, 77% visible
Pressure 30.08 in
Visibility 6.0 miles
Clouds Overcast 700 ft
Dew Point 71 °F
Humidity 99%
Rainfall 0.00 in
Snow Depth Not available.
UV 0 out of 12
Pollen 3.40 out of 12
Air Quality Not available.
Flu Activity Not available.
METAR KCAE 060756Z 22004KT 6SM BR OVC007 23/21 A3009 RMK AO2 CIG 006V011 SLP185 T02280211

More Conditions Fewer Conditions

Pressure 30.08 in
Visibility 6.0 miles
Clouds Overcast 700 ft
Dew Point 71 °F
Humidity 99%
Rainfall 0.00 in
Snow Depth Not available.
UV 0 out of 12
Pollen 3.40 out of 12
Air Quality Not available.
Flu Activity Not available.
METAR KCAE 060756Z 22004KT 6SM BR OVC007 23/21 A3009 RMK AO2 CIG 006V011 SLP185 T02280211

More Conditions Fewer Conditions

10-Day Weather Forecast

×

Almanac

Astronomy

Jul. 06, 2015 Rise Set
Actual Time
Civil Twilight
Nautical Twilight
Astronomical Twilight
Moon
Length of Visible Light
Length of Day
Tomorrow will be .
, % of the Moon is Illuminated

Today's Extremes

State Highs State Lows

Community

WunderPhotos

Upload Photos

1,835,519 photos uploaded!

WunderBlogs® & News

Nearby

Air Quality

  Air Quality AQ Index Pollutant
Not available.

Snow Depth

Station Depth Elevation

Earthquake Activity

City Distance Mag. Time & Date
Minimum magnitude displayed is 2.5.

Coastal Water Temperatures

Place Temperature

Stations

Nearby Weather Stations

Station Location Temp. Windchill Dew Point Humidity Wind Precip. Elev Updated Type